createdAt,value
2018-02-13T00:00:42.328Z,85.93
2018-02-13T00:03:09.873Z,86.03
2018-02-13T00:05:37.405Z,86.08
2018-02-13T00:08:04.931Z,86.17
2018-02-13T00:10:32.473Z,86.06
2018-02-13T00:13:00.026Z,86.18
2018-02-13T00:15:27.592Z,86.29
2018-02-13T00:17:55.120Z,86.19
2018-02-13T00:20:22.629Z,86.05
2018-02-13T00:22:50.872Z,86.01
2018-02-13T00:25:18.385Z,86.05
2018-02-13T00:27:45.952Z,86.07
2018-02-13T00:30:13.461Z,86.04
2018-02-13T00:32:40.993Z,86.05
2018-02-13T00:35:08.562Z,85.79
2018-02-13T00:37:36.069Z,85.33
2018-02-13T00:40:03.579Z,84.96
2018-02-13T00:42:31.141Z,84.86
2018-02-13T00:44:58.681Z,84.93
2018-02-13T00:47:26.191Z,85.26
2018-02-13T00:49:53.745Z,85.08
2018-02-13T00:52:21.281Z,84.92
2018-02-13T00:54:48.798Z,85.04
2018-02-13T00:57:16.325Z,85.08
2018-02-13T00:59:43.834Z,84.87
2018-02-13T01:02:11.402Z,85.02
2018-02-13T01:04:38.923Z,85.40
2018-02-13T01:07:06.458Z,85.59
2018-02-13T01:09:34.099Z,85.67
2018-02-13T01:12:01.647Z,85.97
2018-02-13T01:14:29.175Z,86.13
2018-02-13T01:16:56.788Z,86.02
2018-02-13T01:19:24.323Z,86.00
2018-02-13T01:21:51.862Z,85.93
2018-02-13T01:24:19.545Z,87.52
2018-02-13T01:26:47.122Z,84.76
2018-02-13T01:29:14.637Z,84.09
2018-02-13T01:31:42.191Z,84.44
2018-02-13T01:34:09.719Z,84.82
2018-02-13T01:36:37.359Z,85.07
2018-02-13T01:39:04.884Z,85.37
2018-02-13T01:41:32.391Z,85.64
2018-02-13T01:43:59.902Z,85.61
2018-02-13T01:46:27.479Z,85.48
2018-02-13T01:48:55.015Z,85.49
2018-02-13T01:51:22.516Z,85.56
2018-02-13T01:53:50.032Z,85.47
2018-02-13T01:56:17.629Z,85.29
2018-02-13T01:58:45.170Z,85.15
2018-02-13T02:01:12.734Z,85.05
2018-02-13T02:03:40.263Z,84.84
2018-02-13T02:06:07.803Z,84.78
2018-02-13T02:08:35.326Z,84.53
2018-02-13T02:11:02.987Z,84.50
2018-02-13T02:13:30.516Z,84.75
2018-02-13T02:15:58.032Z,84.68
2018-02-13T02:18:25.589Z,84.95
2018-02-13T02:20:53.109Z,85.48
2018-02-13T02:23:20.613Z,85.73
2018-02-13T02:25:48.129Z,85.79
2018-02-13T02:28:15.793Z,85.81
2018-02-13T02:30:43.308Z,85.84
2018-02-13T02:33:10.894Z,85.68
2018-02-13T02:35:38.421Z,85.60
2018-02-13T02:38:05.934Z,85.70
2018-02-13T02:40:33.481Z,85.29
2018-02-13T02:43:05.972Z,85.88
2018-02-13T02:45:33.519Z,85.95
2018-02-13T02:48:01.042Z,85.81
2018-02-13T02:50:28.577Z,85.86
2018-02-13T02:52:56.184Z,86.04
2018-02-13T02:55:23.846Z,86.40
2018-02-13T02:57:51.348Z,86.60
2018-02-13T03:00:18.877Z,86.61
2018-02-13T03:02:46.393Z,86.35
2018-02-13T03:05:13.904Z,86.07
2018-02-13T03:07:41.457Z,86.33
2018-02-13T03:10:08.973Z,86.91
2018-02-13T03:12:36.562Z,87.12
2018-02-13T03:15:04.108Z,87.19
2018-02-13T03:17:31.695Z,87.48
2018-02-13T03:19:59.238Z,87.59
2018-02-13T03:22:26.766Z,88.03
2018-02-13T03:24:54.314Z,88.36
2018-02-13T03:27:22.037Z,88.63
2018-02-13T03:29:49.592Z,88.88
2018-02-13T03:32:17.132Z,88.81
2018-02-13T03:34:44.672Z,88.96
2018-02-13T03:37:12.275Z,89.24
2018-02-13T03:39:39.808Z,89.44
2018-02-13T03:42:07.353Z,89.65
2018-02-13T03:44:34.866Z,89.60
2018-02-13T03:47:02.409Z,89.55
2018-02-13T03:49:29.950Z,89.69
2018-02-13T03:51:57.452Z,89.55
2018-02-13T03:54:24.958Z,89.59
2018-02-13T03:56:52.531Z,89.77
2018-02-13T03:59:20.065Z,89.92
2018-02-13T04:01:47.882Z,90.04
2018-02-13T04:04:15.426Z,90.01
2018-02-13T04:06:42.937Z,90.00
2018-02-13T04:09:10.471Z,90.10
2018-02-13T04:11:38.013Z,90.24
2018-02-13T04:14:05.545Z,90.23
2018-02-13T04:16:33.120Z,90.26
2018-02-13T04:19:00.687Z,90.24
2018-02-13T04:21:28.239Z,90.22
2018-02-13T04:23:55.781Z,90.32
2018-02-13T04:26:23.438Z,90.38
2018-02-13T04:28:50.973Z,90.66
2018-02-13T04:31:18.506Z,90.55
2018-02-13T04:33:46.072Z,90.45
2018-02-13T04:36:13.586Z,90.61
2018-02-13T04:38:41.119Z,90.96
2018-02-13T04:41:08.656Z,91.14
2018-02-13T04:43:36.188Z,91.14
2018-02-13T04:46:03.712Z,91.07
2018-02-13T04:48:31.256Z,91.21
2018-02-13T04:50:58.765Z,91.26
2018-02-13T04:53:26.304Z,91.39
2018-02-13T04:55:53.976Z,91.38
2018-02-13T04:58:21.504Z,91.31
2018-02-13T05:00:49.095Z,91.32
2018-02-13T05:03:16.647Z,91.30
2018-02-13T05:05:44.162Z,91.30
2018-02-13T05:08:11.681Z,91.25
2018-02-13T05:10:39.254Z,91.19
2018-02-13T05:13:06.966Z,91.27
2018-02-13T05:15:34.497Z,91.26
2018-02-13T05:18:02.161Z,91.22
2018-02-13T05:20:29.760Z,91.29
2018-02-13T05:22:57.336Z,91.27
2018-02-13T05:25:24.873Z,91.13
2018-02-13T05:27:52.429Z,91.12
2018-02-13T05:30:19.937Z,91.10
2018-02-13T05:32:47.449Z,91.09
2018-02-13T05:35:15.003Z,91.01
2018-02-13T05:37:42.538Z,90.90
2018-02-13T05:40:10.049Z,90.69
2018-02-13T05:42:37.582Z,90.63
2018-02-13T05:45:05.121Z,90.54
2018-02-13T05:47:32.657Z,90.65
2018-02-13T05:50:00.208Z,90.55
2018-02-13T05:52:27.721Z,90.67
2018-02-13T05:54:55.266Z,90.63
2018-02-13T05:57:22.777Z,90.47
2018-02-13T05:59:50.289Z,90.26
2018-02-13T06:02:17.842Z,90.16
2018-02-13T06:04:45.353Z,90.19
2018-02-13T06:07:12.859Z,90.06
2018-02-13T06:09:40.411Z,90.09
2018-02-13T06:12:07.929Z,89.99
2018-02-13T06:14:35.490Z,89.70
2018-02-13T06:17:03.026Z,89.59
2018-02-13T06:19:30.534Z,89.81
2018-02-13T06:21:58.050Z,89.76
2018-02-13T06:24:25.561Z,89.69
2018-02-13T06:26:53.159Z,89.88
2018-02-13T06:29:20.677Z,89.74
2018-02-13T06:31:48.532Z,89.58
2018-02-13T06:34:16.079Z,89.63
2018-02-13T06:36:43.609Z,89.58
2018-02-13T06:39:11.113Z,89.74
2018-02-13T06:41:38.633Z,89.87
2018-02-13T06:44:06.165Z,89.81
2018-02-13T06:46:33.735Z,89.71
2018-02-13T06:49:01.303Z,89.62
2018-02-13T06:51:28.825Z,89.40
2018-02-13T06:53:56.380Z,89.34
2018-02-13T06:56:23.909Z,89.33
2018-02-13T06:58:51.454Z,89.10
2018-02-13T07:01:19.086Z,88.89
2018-02-13T07:03:46.729Z,88.81
2018-02-13T07:06:14.288Z,88.85
2018-02-13T07:08:41.793Z,88.71
2018-02-13T07:11:09.320Z,88.87
2018-02-13T07:13:36.859Z,88.58
2018-02-13T07:16:04.365Z,88.61
2018-02-13T07:18:31.985Z,88.41
2018-02-13T07:20:59.525Z,87.87
2018-02-13T07:23:27.076Z,87.47
2018-02-13T07:25:54.620Z,87.41
2018-02-13T07:28:22.200Z,87.39
2018-02-13T07:30:49.734Z,87.28
2018-02-13T07:33:17.243Z,86.97
2018-02-13T07:35:44.823Z,86.77
2018-02-13T07:38:12.330Z,86.51
2018-02-13T07:40:39.853Z,86.57
2018-02-13T07:43:07.407Z,86.46
2018-02-13T07:45:34.918Z,86.46
2018-02-13T07:48:02.430Z,86.48
2018-02-13T07:50:29.952Z,86.54
2018-02-13T07:52:57.493Z,86.22
2018-02-13T07:55:25.086Z,86.08
2018-02-13T07:57:52.601Z,85.73
2018-02-13T08:00:20.130Z,85.51
2018-02-13T08:02:47.660Z,85.28
2018-02-13T08:05:15.192Z,85.02
2018-02-13T08:07:42.780Z,85.24
2018-02-13T08:10:10.309Z,84.46
2018-02-13T08:12:37.827Z,84.15
2018-02-13T08:15:05.559Z,84.10
2018-02-13T08:17:33.076Z,84.17
2018-02-13T08:20:00.680Z,84.13
2018-02-13T08:22:28.319Z,83.46
2018-02-13T08:24:55.882Z,82.77
2018-02-13T08:27:23.424Z,82.33
2018-02-13T08:29:50.955Z,82.14
2018-02-13T08:32:18.485Z,82.07
2018-02-13T08:34:46.006Z,81.80
2018-02-13T08:37:13.537Z,81.02
2018-02-13T08:39:41.073Z,81.00
2018-02-13T08:42:08.694Z,81.07
2018-02-13T08:44:36.223Z,80.57
2018-02-13T08:47:03.728Z,80.55
2018-02-13T08:49:31.284Z,80.46
2018-02-13T08:51:59.005Z,80.02
2018-02-13T08:54:26.593Z,79.89
2018-02-13T08:56:54.149Z,79.17
2018-02-13T08:59:21.712Z,78.41
2018-02-13T09:01:49.241Z,78.15
2018-02-13T09:04:16.794Z,78.05
2018-02-13T09:06:44.384Z,77.98
2018-02-13T09:09:11.905Z,77.76
2018-02-13T09:11:39.413Z,77.51
2018-02-13T09:14:06.956Z,77.63
2018-02-13T09:16:34.494Z,77.23
2018-02-13T09:19:02.061Z,76.22
2018-02-13T09:21:29.664Z,76.14
2018-02-13T09:23:57.176Z,75.84
2018-02-13T09:26:24.720Z,75.28
2018-02-13T09:28:52.245Z,75.69
2018-02-13T09:31:19.780Z,74.94
2018-02-13T09:33:47.326Z,74.87
2018-02-13T09:36:14.866Z,74.17
2018-02-13T09:38:42.398Z,73.48
2018-02-13T09:41:09.939Z,72.31
2018-02-13T09:43:37.460Z,72.41
2018-02-13T09:46:04.991Z,72.86
2018-02-13T09:48:32.543Z,72.96
2018-02-13T09:51:00.089Z,73.49
2018-02-13T09:53:27.620Z,73.66
2018-02-13T09:55:55.125Z,72.81
2018-02-13T09:58:22.630Z,72.96
2018-02-13T10:00:50.155Z,73.28
2018-02-13T10:03:17.718Z,73.26
2018-02-13T10:05:45.415Z,72.78
2018-02-13T10:08:12.947Z,71.72
2018-02-13T10:10:40.462Z,70.64
2018-02-13T10:13:08.003Z,69.76
2018-02-13T10:15:35.545Z,68.56
2018-02-13T10:18:03.098Z,68.08
2018-02-13T10:20:30.730Z,69.20
2018-02-13T10:22:58.253Z,69.95
2018-02-13T10:25:25.782Z,70.63
2018-02-13T10:27:53.460Z,70.68
2018-02-13T10:30:20.981Z,70.90
2018-02-13T10:32:48.525Z,70.49
2018-02-13T10:35:16.115Z,70.15
2018-02-13T10:37:43.613Z,70.08
2018-02-13T10:40:11.142Z,69.05
2018-02-13T10:42:38.797Z,68.45
2018-02-13T10:45:06.381Z,67.97
2018-02-13T10:47:33.920Z,67.72
2018-02-13T10:50:01.450Z,66.47
2018-02-13T10:52:28.979Z,65.41
2018-02-13T10:54:56.516Z,65.42
2018-02-13T10:57:24.042Z,66.10
2018-02-13T10:59:51.610Z,66.51
2018-02-13T11:02:22.932Z,67.15
2018-02-13T11:04:50.469Z,66.76
2018-02-13T11:07:18.017Z,66.33
2018-02-13T11:09:45.550Z,65.73
2018-02-13T11:12:13.073Z,65.58
2018-02-13T11:14:40.769Z,65.46
2018-02-13T11:17:08.335Z,64.66
2018-02-13T11:19:35.853Z,64.22
2018-02-13T11:22:03.384Z,64.15
2018-02-13T11:24:30.914Z,63.80
2018-02-13T11:26:58.415Z,63.76
2018-02-13T11:29:25.940Z,63.39
2018-02-13T11:31:53.564Z,62.29
2018-02-13T11:34:21.076Z,62.04
2018-02-13T11:36:48.636Z,61.83
2018-02-13T11:39:16.192Z,61.38
2018-02-13T11:41:43.704Z,61.32
2018-02-13T11:44:11.252Z,61.63
2018-02-13T11:46:38.768Z,61.37
2018-02-13T11:49:06.338Z,60.16
2018-02-13T11:51:33.865Z,60.45
2018-02-13T11:54:01.398Z,58.97
2018-02-13T11:56:28.978Z,58.90
2018-02-13T11:58:56.507Z,58.81
2018-02-13T12:01:24.072Z,58.93
2018-02-13T12:03:51.630Z,57.95
2018-02-13T12:06:19.176Z,58.20
2018-02-13T12:08:46.725Z,57.74
2018-02-13T12:11:14.311Z,57.81
2018-02-13T12:13:41.862Z,57.90
2018-02-13T12:16:09.405Z,56.90
2018-02-13T12:18:36.943Z,56.38
2018-02-13T12:21:04.560Z,56.05
2018-02-13T12:23:32.088Z,54.88
2018-02-13T12:25:59.685Z,54.78
2018-02-13T12:28:27.256Z,54.09
2018-02-13T12:30:54.811Z,54.02
2018-02-13T12:33:22.452Z,54.31
2018-02-13T12:35:49.995Z,54.71
2018-02-13T12:38:17.581Z,55.07
2018-02-13T12:40:45.153Z,53.88
2018-02-13T12:43:12.683Z,54.27
2018-02-13T12:45:40.189Z,53.59
2018-02-13T12:48:07.968Z,53.31
2018-02-13T12:50:35.473Z,54.27
2018-02-13T12:53:03.025Z,54.36
2018-02-13T12:55:30.600Z,54.74
2018-02-13T12:57:58.118Z,54.75
2018-02-13T13:00:25.680Z,54.29
2018-02-13T13:02:53.213Z,54.50
2018-02-13T13:05:20.761Z,54.39
2018-02-13T13:07:48.408Z,53.84
2018-02-13T13:10:15.938Z,54.08
2018-02-13T13:12:43.517Z,54.40
2018-02-13T13:15:11.131Z,54.56
2018-02-13T13:17:38.659Z,55.61
2018-02-13T13:20:06.188Z,56.03
2018-02-13T13:22:33.757Z,56.35
2018-02-13T13:25:01.238Z,56.45
2018-02-13T13:27:28.809Z,56.81
2018-02-13T13:29:56.285Z,56.43
2018-02-13T13:32:23.773Z,56.67
2018-02-13T13:34:51.241Z,56.65
2018-02-13T13:37:18.726Z,56.57
2018-02-13T13:39:46.199Z,56.51
2018-02-13T13:42:13.758Z,56.42
2018-02-13T13:44:41.345Z,57.78
2018-02-13T13:47:08.798Z,56.84
2018-02-13T13:49:36.423Z,56.62
2018-02-13T13:52:03.942Z,55.67
2018-02-13T13:54:31.398Z,55.07
2018-02-13T13:56:58.958Z,56.13
2018-02-13T13:59:26.421Z,56.03
2018-02-13T14:01:53.877Z,56.31
2018-02-13T14:04:21.395Z,56.24
2018-02-13T14:06:48.849Z,55.87
2018-02-13T14:09:16.318Z,56.33
2018-02-13T14:11:43.782Z,56.85
2018-02-13T14:14:11.270Z,56.69
2018-02-13T14:16:38.734Z,57.69
2018-02-13T14:19:08.733Z,56.29
2018-02-13T14:21:36.256Z,56.06
2018-02-13T14:24:03.712Z,55.97
2018-02-13T14:26:31.165Z,55.96
2018-02-13T14:28:58.655Z,55.05
2018-02-13T14:31:26.113Z,55.05
2018-02-13T14:33:53.572Z,55.08
2018-02-13T14:36:21.043Z,54.96
2018-02-13T14:38:48.490Z,55.40
2018-02-13T14:41:15.978Z,55.27
2018-02-13T14:43:43.439Z,54.74
2018-02-13T14:46:10.895Z,55.14
2018-02-13T14:48:38.490Z,54.41
2018-02-13T14:51:06.046Z,54.85
2018-02-13T14:53:33.501Z,55.75
2018-02-13T14:56:01.058Z,56.14
2018-02-13T14:58:28.521Z,55.23
2018-02-13T15:00:55.977Z,55.89
2018-02-13T15:03:23.449Z,55.72
2018-02-13T15:05:50.942Z,56.10
2018-02-13T15:08:18.395Z,55.86
2018-02-13T15:10:45.851Z,55.45
2018-02-13T15:13:13.325Z,54.42
2018-02-13T15:15:40.856Z,54.96
2018-02-13T15:18:13.243Z,55.28
2018-02-13T15:20:40.746Z,55.13
2018-02-13T15:23:08.206Z,54.93
2018-02-13T15:25:35.670Z,55.22
2018-02-13T15:28:03.122Z,55.49
2018-02-13T15:30:30.598Z,55.23
2018-02-13T15:32:58.056Z,55.81
2018-02-13T15:35:25.519Z,55.77
2018-02-13T15:37:53.046Z,55.57
2018-02-13T15:40:20.601Z,55.72
2018-02-13T15:42:48.104Z,55.58
2018-02-13T15:45:15.598Z,56.08
2018-02-13T15:47:43.058Z,56.28
2018-02-13T15:50:10.514Z,56.54
2018-02-13T15:52:37.982Z,56.79
2018-02-13T15:55:05.602Z,57.07
2018-02-13T15:57:33.053Z,56.84
2018-02-13T16:00:00.526Z,56.92
2018-02-13T16:02:28.225Z,57.06
2018-02-13T16:04:55.693Z,57.30
2018-02-13T16:07:23.154Z,57.51
2018-02-13T16:09:50.652Z,57.63
2018-02-13T16:12:18.188Z,57.81
2018-02-13T16:14:45.650Z,57.90
2018-02-13T16:17:13.130Z,58.05
2018-02-13T16:19:40.581Z,58.65
2018-02-13T16:22:08.063Z,59.16
2018-02-13T16:24:35.521Z,59.59
2018-02-13T16:27:03.043Z,60.06
2018-02-13T16:29:30.504Z,60.74
2018-02-13T16:31:57.972Z,60.71
2018-02-13T16:34:25.520Z,61.17
2018-02-13T16:36:53.039Z,61.52
2018-02-13T16:39:20.511Z,61.74
2018-02-13T16:41:47.969Z,62.13
2018-02-13T16:44:15.502Z,62.51
2018-02-13T16:46:42.958Z,62.82
2018-02-13T16:49:10.415Z,62.92
2018-02-13T16:51:37.981Z,62.99
2018-02-13T16:54:05.436Z,63.28
2018-02-13T16:56:32.886Z,63.52
2018-02-13T16:59:00.461Z,63.77
2018-02-13T17:01:27.920Z,64.15
2018-02-13T17:03:55.374Z,64.31
2018-02-13T17:06:22.858Z,64.43
2018-02-13T17:08:50.491Z,64.99
2018-02-13T17:11:17.951Z,64.74
2018-02-13T17:13:45.449Z,64.33
2018-02-13T17:16:12.936Z,64.35
2018-02-13T17:18:41.346Z,64.78
2018-02-13T17:21:08.893Z,64.89
2018-02-13T17:23:36.378Z,64.92
2018-02-13T17:26:03.870Z,65.58
2018-02-13T17:28:31.380Z,65.49
2018-02-13T17:30:58.837Z,65.72
2018-02-13T17:33:26.321Z,65.90
2018-02-13T17:35:53.769Z,66.08
2018-02-13T17:38:21.231Z,66.09
2018-02-13T17:40:48.725Z,66.07
2018-02-13T17:43:16.183Z,66.20
2018-02-13T17:45:43.630Z,66.17
2018-02-13T17:48:11.097Z,66.32
2018-02-13T17:50:38.561Z,66.15
2018-02-13T17:53:06.025Z,66.20
2018-02-13T17:55:33.483Z,66.25
2018-02-13T17:58:00.941Z,66.46
2018-02-13T18:00:28.393Z,66.61
2018-02-13T18:02:55.863Z,66.47
2018-02-13T18:05:23.330Z,67.19
2018-02-13T18:07:51.138Z,65.82
2018-02-13T18:10:18.588Z,65.40
2018-02-13T18:12:46.042Z,65.49
2018-02-13T18:15:13.578Z,65.46
2018-02-13T18:17:41.032Z,65.67
2018-02-13T18:20:08.525Z,66.20
2018-02-13T18:22:36.047Z,66.04
2018-02-13T18:25:03.503Z,66.19
2018-02-13T18:27:31.000Z,66.73
2018-02-13T18:29:58.457Z,66.64
2018-02-13T18:32:26.025Z,67.03
2018-02-13T18:34:53.486Z,67.40
2018-02-13T18:37:20.988Z,67.75
2018-02-13T18:39:48.545Z,68.14
2018-02-13T18:42:16.025Z,68.66
2018-02-13T18:44:43.473Z,68.79
2018-02-13T18:47:10.959Z,68.72
2018-02-13T18:49:38.445Z,68.83
2018-02-13T18:52:05.943Z,68.54
2018-02-13T18:54:33.405Z,68.23
2018-02-13T18:57:00.884Z,68.08
2018-02-13T18:59:28.455Z,67.99
2018-02-13T19:01:56.110Z,68.07
2018-02-13T19:04:23.560Z,68.00
2018-02-13T19:06:51.009Z,68.08
2018-02-13T19:09:19.031Z,68.47
2018-02-13T19:11:47.627Z,68.32
2018-02-13T19:14:15.241Z,68.88
2018-02-13T19:19:10.318Z,69.06
2018-02-13T19:21:37.777Z,69.36
2018-02-13T19:24:05.356Z,69.31
2018-02-13T19:26:32.814Z,69.20
2018-02-13T19:29:00.310Z,69.50
2018-02-13T19:31:27.770Z,69.88
2018-02-13T19:33:55.243Z,70.04
2018-02-13T19:36:22.720Z,70.21
2018-02-13T19:38:50.276Z,70.05
2018-02-13T19:41:17.745Z,70.11
2018-02-13T19:43:45.210Z,70.29
2018-02-13T19:46:12.697Z,70.27
2018-02-13T19:48:40.163Z,70.26
2018-02-13T19:51:07.650Z,70.49
2018-02-13T19:53:35.142Z,70.49
2018-02-13T19:56:02.609Z,70.82
2018-02-13T19:58:30.106Z,70.96
2018-02-13T20:00:57.572Z,71.21
2018-02-13T20:03:25.048Z,71.49
2018-02-13T20:05:52.539Z,71.69
2018-02-13T20:08:20.005Z,71.90
2018-02-13T20:10:47.466Z,71.72
2018-02-13T20:13:15.886Z,71.80
2018-02-13T20:15:43.344Z,72.09
2018-02-13T20:18:10.801Z,71.79
2018-02-13T20:20:38.278Z,71.98
2018-02-13T20:23:05.753Z,72.01
2018-02-13T20:25:33.247Z,72.13
2018-02-13T20:28:00.708Z,72.17
2018-02-13T20:30:28.176Z,72.17
2018-02-13T20:32:55.647Z,72.41
2018-02-13T20:35:23.107Z,72.41
2018-02-13T20:37:50.598Z,72.16
2018-02-13T20:40:18.066Z,72.32
2018-02-13T20:42:45.547Z,72.18
2018-02-13T20:45:13.043Z,72.29
2018-02-13T20:47:40.518Z,72.35
2018-02-13T20:50:08.009Z,72.34
2018-02-13T20:52:35.602Z,72.33
2018-02-13T20:55:03.128Z,72.51
2018-02-13T20:57:30.642Z,72.45
2018-02-13T20:59:58.155Z,72.31
2018-02-13T21:02:25.615Z,72.74
2018-02-13T21:04:53.077Z,72.62
2018-02-13T21:07:20.557Z,73.03
2018-02-13T21:09:48.101Z,72.65
2018-02-13T21:12:15.558Z,72.52
2018-02-13T21:14:43.044Z,72.78
2018-02-13T21:17:10.549Z,72.94
2018-02-13T21:19:38.073Z,73.50
2018-02-13T21:22:05.621Z,73.55
2018-02-13T21:24:33.188Z,73.70
2018-02-13T21:27:00.817Z,74.03
2018-02-13T21:29:28.344Z,74.15
2018-02-13T21:31:55.812Z,74.22
2018-02-13T21:34:23.316Z,74.49
2018-02-13T21:36:50.797Z,74.68
2018-02-13T21:39:18.264Z,74.86
2018-02-13T21:41:45.742Z,75.62
2018-02-13T21:44:13.197Z,75.29
2018-02-13T21:46:40.653Z,75.10
2018-02-13T21:49:08.167Z,75.16
2018-02-13T21:51:35.622Z,75.41
2018-02-13T21:54:03.098Z,75.37
2018-02-13T21:56:30.573Z,75.57
2018-02-13T21:58:58.034Z,75.62
2018-02-13T22:01:25.519Z,75.80
2018-02-13T22:03:52.978Z,75.87
2018-02-13T22:06:20.474Z,76.18
2018-02-13T22:08:47.926Z,76.31
2018-02-13T22:11:15.381Z,76.41
2018-02-13T22:13:42.898Z,76.36
2018-02-13T22:16:10.378Z,76.25
2018-02-13T22:18:37.841Z,76.28
2018-02-13T22:21:05.406Z,76.53
2018-02-13T22:23:32.876Z,76.79
2018-02-13T22:26:00.343Z,76.57
2018-02-13T22:28:27.825Z,76.58
2018-02-13T22:30:55.289Z,76.72
2018-02-13T22:33:22.791Z,77.24
2018-02-13T22:35:50.259Z,77.22
2018-02-13T22:38:17.810Z,77.56
2018-02-13T22:40:45.276Z,77.46
2018-02-13T22:43:12.770Z,77.62
2018-02-13T22:45:40.277Z,77.45
2018-02-13T22:48:07.729Z,77.74
2018-02-13T22:50:35.187Z,77.99
2018-02-13T22:53:02.713Z,78.06
2018-02-13T22:55:30.193Z,78.11
2018-02-13T22:57:57.649Z,78.19
2018-02-13T23:00:25.213Z,79.27
2018-02-13T23:02:52.677Z,77.92
2018-02-13T23:07:53.960Z,78.21
2018-02-13T23:10:21.437Z,78.29
2018-02-13T23:12:48.969Z,78.60
2018-02-13T23:15:16.433Z,78.60
2018-02-13T23:17:44.077Z,78.75
2018-02-13T23:20:11.534Z,79.04
2018-02-13T23:22:38.993Z,79.05
2018-02-13T23:25:06.509Z,79.19
2018-02-13T23:27:34.011Z,79.04
2018-02-13T23:30:01.573Z,79.08
2018-02-13T23:32:29.033Z,79.12
2018-02-13T23:34:56.526Z,79.23
2018-02-13T23:37:24.038Z,79.18
2018-02-13T23:39:51.602Z,79.13
2018-02-13T23:42:19.086Z,80.14
2018-02-13T23:44:46.576Z,79.05
2018-02-13T23:47:14.078Z,79.23
2018-02-13T23:49:41.530Z,79.24
2018-02-13T23:52:09.028Z,79.23
2018-02-13T23:54:36.481Z,79.52
2018-02-13T23:57:03.943Z,79.71
2018-02-13T23:59:31.450Z,79.72
